sensor_id;sensor_type;location;lat;lon;timestamp;pressure;altitude;pressure_sealevel;temperature;humidity
75681;BME280;64294;49.176;16.626;2022-12-29T00:02:00;99486.88;;;-3.16;100.00
75681;BME280;64294;49.176;16.626;2022-12-29T00:04:25;99493.38;;;-3.23;100.00
75681;BME280;64294;49.176;16.626;2022-12-29T00:06:52;99493.59;;;-3.30;100.00
75681;BME280;64294;49.176;16.626;2022-12-29T00:09:17;99492.38;;;-3.29;100.00
75681;BME280;64294;49.176;16.626;2022-12-29T00:11:43;99492.59;;;-3.36;100.00
75681;BME280;64294;49.176;16.626;2022-12-29T00:14:09;99500.84;;;-3.36;100.00
75681;BME280;64294;49.176;16.626;2022-12-29T00:16:54;99506.53;;;-3.43;100.00
75681;BME280;64294;49.176;16.626;2022-12-29T00:19:20;99515.34;;;-3.48;100.00
75681;BME280;64294;49.176;16.626;2022-12-29T00:22:04;99507.53;;;-3.50;100.00
75681;BME280;64294;49.176;16.626;2022-12-29T00:24:48;99515.53;;;-3.55;100.00
75681;BME280;64294;49.176;16.626;2022-12-29T00:27:20;99512.56;;;-3.61;100.00
75681;BME280;64294;49.176;16.626;2022-12-29T00:30:09;99511.03;;;-3.62;100.00
75681;BME280;64294;49.176;16.626;2022-12-29T00:32:53;99501.78;;;-3.68;100.00
75681;BME280;64294;49.176;16.626;2022-12-29T00:35:53;99500.44;;;-3.76;100.00
75681;BME280;64294;49.176;16.626;2022-12-29T00:38:20;99498.88;;;-3.77;100.00
75681;BME280;64294;49.176;16.626;2022-12-29T00:41:05;99504.59;;;-3.84;100.00
75681;BME280;64294;49.176;16.626;2022-12-29T00:43:49;99483.41;;;-3.84;100.00
75681;BME280;64294;49.176;16.626;2022-12-29T00:46:36;99488.28;;;-3.91;100.00
75681;BME280;64294;49.176;16.626;2022-12-29T00:49:03;99495.34;;;-3.90;100.00
75681;BME280;64294;49.176;16.626;2022-12-29T00:51:48;99491.47;;;-3.93;100.00
75681;BME280;64294;49.176;16.626;2022-12-29T00:54:16;99493.03;;;-3.92;100.00
75681;BME280;64294;49.176;16.626;2022-12-29T00:56:41;99484.38;;;-3.90;100.00
75681;BME280;64294;49.176;16.626;2022-12-29T00:59:09;99489.94;;;-3.94;100.00
75681;BME280;64294;49.176;16.626;2022-12-29T01:01:36;99486.88;;;-3.96;100.00
75681;BME280;64294;49.176;16.626;2022-12-29T01:04:01;99498.63;;;-3.96;100.00
75681;BME280;64294;49.176;16.626;2022-12-29T01:06:27;99480.16;;;-3.95;100.00
75681;BME280;64294;49.176;16.626;2022-12-29T01:08:52;99479.59;;;-4.03;100.00
75681;BME280;64294;49.176;16.626;2022-12-29T01:11:40;99488.38;;;-4.08;100.00
75681;BME280;64294;49.176;16.626;2022-12-29T01:14:06;99498.59;;;-4.08;100.00
75681;BME280;64294;49.176;16.626;2022-12-29T01:16:32;99489.47;;;-4.05;100.00
75681;BME280;64294;49.176;16.626;2022-12-29T01:18:58;99496.63;;;-4.08;100.00
75681;BME280;64294;49.176;16.626;2022-12-29T01:21:24;99493.72;;;-4.17;100.00
75681;BME280;64294;49.176;16.626;2022-12-29T01:23:50;99488.56;;;-4.15;100.00
75681;BME280;64294;49.176;16.626;2022-12-29T01:26:16;99490.53;;;-4.15;100.00
75681;BME280;64294;49.176;16.626;2022-12-29T01:28:42;99496.63;;;-4.08;100.00
75681;BME280;64294;49.176;16.626;2022-12-29T01:31:09;99499.88;;;-4.13;100.00
75681;BME280;64294;49.176;16.626;2022-12-29T01:33:35;99502.09;;;-4.08;100.00
75681;BME280;64294;49.176;16.626;2022-12-29T01:36:12;99513.16;;;-4.11;100.00
75681;BME280;64294;49.176;16.626;2022-12-29T01:38:38;99510.34;;;-4.08;100.00
75681;BME280;64294;49.176;16.626;2022-12-29T01:41:05;99504.41;;;-4.06;100.00
75681;BME280;64294;49.176;16.626;2022-12-29T01:43:52;99504.47;;;-4.10;100.00
75681;BME280;64294;49.176;16.626;2022-12-29T01:46:37;99496.78;;;-4.15;100.00
75681;BME280;64294;49.176;16.626;2022-12-29T01:49:19;99500.31;;;-4.14;100.00
75681;BME280;64294;49.176;16.626;2022-12-29T01:51:51;99488.56;;;-4.15;100.00
75681;BME280;64294;49.176;16.626;2022-12-29T01:54:22;99484.59;;;-4.14;100.00
75681;BME280;64294;49.176;16.626;2022-12-29T01:56:51;99483.22;;;-4.06;100.00
75681;BME280;64294;49.176;16.626;2022-12-29T01:59:22;99472.25;;;-4.06;100.00
75681;BME280;64294;49.176;16.626;2022-12-29T02:01:50;99470.00;;;-4.11;100.00
75681;BME280;64294;49.176;16.626;2022-12-29T02:04:16;99461.88;;;-4.14;100.00
75681;BME280;64294;49.176;16.626;2022-12-29T02:06:49;99460.16;;;-4.08;100.00
75681;BME280;64294;49.176;16.626;2022-12-29T02:09:16;99469.69;;;-4.13;100.00
75681;BME280;64294;49.176;16.626;2022-12-29T02:11:41;99474.41;;;-4.13;100.00
75681;BME280;64294;49.176;16.626;2022-12-29T02:14:11;99472.31;;;-4.09;100.00
75681;BME280;64294;49.176;16.626;2022-12-29T02:32:50;99453.53;;;-4.11;100.00
75681;BME280;64294;49.176;16.626;2022-12-29T02:35:48;99450.72;;;-4.07;100.00
75681;BME280;64294;49.176;16.626;2022-12-29T02:49:25;99454.91;;;-4.03;100.00
75681;BME280;64294;49.176;16.626;2022-12-29T02:52:04;99454.56;;;-4.05;100.00
75681;BME280;64294;49.176;16.626;2022-12-29T02:54:32;99446.00;;;-4.07;100.00
75681;BME280;64294;49.176;16.626;2022-12-29T02:57:15;99450.78;;;-4.11;100.00
75681;BME280;64294;49.176;16.626;2022-12-29T02:59:43;99452.78;;;-4.11;100.00
75681;BME280;64294;49.176;16.626;2022-12-29T03:02:30;99449.94;;;-4.08;100.00
75681;BME280;64294;49.176;16.626;2022-12-29T03:13:28;99445.31;;;-4.11;100.00
75681;BME280;64294;49.176;16.626;2022-12-29T03:16:29;99443.25;;;-4.07;100.00
75681;BME280;64294;49.176;16.626;2022-12-29T03:21:42;99445.47;;;-4.02;100.00
75681;BME280;64294;49.176;16.626;2022-12-29T03:24:30;99452.28;;;-3.93;100.00
75681;BME280;64294;49.176;16.626;2022-12-29T03:26:58;99455.34;;;-3.91;100.00
75681;BME280;64294;49.176;16.626;2022-12-29T03:29:28;99461.53;;;-3.87;100.00
75681;BME280;64294;49.176;16.626;2022-12-29T03:31:55;99458.09;;;-3.91;100.00
75681;BME280;64294;49.176;16.626;2022-12-29T03:34:22;99453.81;;;-3.92;100.00
75681;BME280;64294;49.176;16.626;2022-12-29T03:37:12;99462.31;;;-3.87;100.00
75681;BME280;64294;49.176;16.626;2022-12-29T03:39:40;99452.09;;;-3.86;100.00
75681;BME280;64294;49.176;16.626;2022-12-29T03:42:16;99443.75;;;-3.83;100.00
75681;BME280;64294;49.176;16.626;2022-12-29T03:44:45;99435.63;;;-3.86;100.00
75681;BME280;64294;49.176;16.626;2022-12-29T03:47:14;99433.38;;;-3.91;100.00
75681;BME280;64294;49.176;16.626;2022-12-29T03:49:40;99431.84;;;-3.92;100.00
75681;BME280;64294;49.176;16.626;2022-12-29T03:52:06;99426.34;;;-3.92;100.00
75681;BME280;64294;49.176;16.626;2022-12-29T03:54:32;99431.06;;;-3.93;100.00
75681;BME280;64294;49.176;16.626;2022-12-29T03:56:58;99425.69;;;-3.97;100.00
75681;BME280;64294;49.176;16.626;2022-12-29T03:59:23;99422.72;;;-4.02;100.00
75681;BME280;64294;49.176;16.626;2022-12-29T04:01:49;99423.72;;;-4.09;100.00
75681;BME280;64294;49.176;16.626;2022-12-29T04:04:14;99427.31;;;-4.12;100.00
75681;BME280;64294;49.176;16.626;2022-12-29T04:06:40;99429.97;;;-4.08;100.00
75681;BME280;64294;49.176;16.626;2022-12-29T04:09:05;99432.72;;;-4.08;100.00
75681;BME280;64294;49.176;16.626;2022-12-29T04:11:31;99433.13;;;-4.10;100.00
75681;BME280;64294;49.176;16.626;2022-12-29T04:13:56;99423.72;;;-4.09;100.00
75681;BME280;64294;49.176;16.626;2022-12-29T04:16:22;99440.19;;;-4.09;100.00
75681;BME280;64294;49.176;16.626;2022-12-29T04:18:47;99437.63;;;-4.16;100.00
75681;BME280;64294;49.176;16.626;2022-12-29T04:21:13;99439.69;;;-4.20;100.00
75681;BME280;64294;49.176;16.626;2022-12-29T04:23:39;99446.94;;;-4.26;100.00
75681;BME280;64294;49.176;16.626;2022-12-29T04:26:05;99444.50;;;-4.24;100.00
75681;BME280;64294;49.176;16.626;2022-12-29T04:28:34;99441.88;;;-4.28;100.00
75681;BME280;64294;49.176;16.626;2022-12-29T04:31:00;99443.16;;;-4.32;100.00
75681;BME280;64294;49.176;16.626;2022-12-29T04:33:25;99444.78;;;-4.35;100.00
75681;BME280;64294;49.176;16.626;2022-12-29T04:35:51;99450.28;;;-4.35;100.00
75681;BME280;64294;49.176;16.626;2022-12-29T04:38:19;99443.59;;;-4.34;100.00
75681;BME280;64294;49.176;16.626;2022-12-29T04:40:45;99442.47;;;-4.36;100.00
75681;BME280;64294;49.176;16.626;2022-12-29T04:43:11;99434.25;;;-4.36;100.00
75681;BME280;64294;49.176;16.626;2022-12-29T04:45:37;99447.25;;;-4.24;100.00
75681;BME280;64294;49.176;16.626;2022-12-29T04:48:02;99449.13;;;-4.21;100.00
75681;BME280;64294;49.176;16.626;2022-12-29T04:50:28;99465.94;;;-4.19;100.00
75681;BME280;64294;49.176;16.626;2022-12-29T04:52:54;99470.41;;;-4.25;100.00
75681;BME280;64294;49.176;16.626;2022-12-29T04:55:19;99461.75;;;-4.23;100.00
75681;BME280;64294;49.176;16.626;2022-12-29T04:57:45;99461.84;;;-4.27;100.00
75681;BME280;64294;49.176;16.626;2022-12-29T05:00:13;99472.06;;;-4.28;100.00
75681;BME280;64294;49.176;16.626;2022-12-29T05:02:39;99466.56;;;-4.28;100.00
75681;BME280;64294;49.176;16.626;2022-12-29T05:05:05;99461.75;;;-4.23;100.00
75681;BME280;64294;49.176;16.626;2022-12-29T05:07:31;99463.81;;;-4.28;100.00
75681;BME280;64294;49.176;16.626;2022-12-29T05:09:58;99454.78;;;-4.28;100.00
75681;BME280;64294;49.176;16.626;2022-12-29T05:12:24;99451.78;;;-4.17;100.00
75681;BME280;64294;49.176;16.626;2022-12-29T05:14:49;99459.13;;;-4.14;100.00
75681;BME280;64294;49.176;16.626;2022-12-29T05:17:14;99445.06;;;-4.16;100.00
75681;BME280;64294;49.176;16.626;2022-12-29T05:19:40;99456.06;;;-4.16;100.00
75681;BME280;64294;49.176;16.626;2022-12-29T05:22:05;99445.94;;;-4.19;100.00
75681;BME280;64294;49.176;16.626;2022-12-29T05:24:31;99454.28;;;-4.23;100.00
75681;BME280;64294;49.176;16.626;2022-12-29T05:26:56;99451.44;;;-4.19;100.00
75681;BME280;64294;49.176;16.626;2022-12-29T05:29:21;99450.34;;;-4.22;100.00
75681;BME280;64294;49.176;16.626;2022-12-29T05:31:47;99453.63;;;-4.27;100.00
75681;BME280;64294;49.176;16.626;2022-12-29T05:34:12;99442.72;;;-4.31;100.00
75681;BME280;64294;49.176;16.626;2022-12-29T05:36:38;99431.31;;;-4.29;100.00
75681;BME280;64294;49.176;16.626;2022-12-29T05:39:04;99443.16;;;-4.32;100.00
75681;BME280;64294;49.176;16.626;2022-12-29T05:41:30;99438.19;;;-4.37;100.00
75681;BME280;64294;49.176;16.626;2022-12-29T05:43:56;99434.78;;;-4.41;100.00
75681;BME280;64294;49.176;16.626;2022-12-29T05:46:21;99439.94;;;-4.43;100.00
75681;BME280;64294;49.176;16.626;2022-12-29T05:48:46;99442.41;;;-4.49;100.00
75681;BME280;64294;49.176;16.626;2022-12-29T05:51:12;99430.50;;;-4.42;100.00
75681;BME280;64294;49.176;16.626;2022-12-29T05:53:37;99437.66;;;-4.32;100.00
75681;BME280;64294;49.176;16.626;2022-12-29T05:56:03;99427.56;;;-4.35;100.00
75681;BME280;64294;49.176;16.626;2022-12-29T05:58:28;99443.88;;;-4.44;100.00
75681;BME280;64294;49.176;16.626;2022-12-29T06:00:54;99436.88;;;-4.33;100.00
75681;BME280;64294;49.176;16.626;2022-12-29T06:03:19;99423.59;;;-4.05;100.00
75681;BME280;64294;49.176;16.626;2022-12-29T06:05:45;99422.50;;;-3.95;100.00
75681;BME280;64294;49.176;16.626;2022-12-29T06:08:11;99420.88;;;-3.92;100.00
75681;BME280;64294;49.176;16.626;2022-12-29T06:10:37;99419.53;;;-4.01;100.00
75681;BME280;64294;49.176;16.626;2022-12-29T06:13:02;99408.78;;;-4.08;100.00
75681;BME280;64294;49.176;16.626;2022-12-29T06:15:31;99407.44;;;-4.16;100.00
75681;BME280;64294;49.176;16.626;2022-12-29T06:17:56;99414.38;;;-3.99;100.00
75681;BME280;64294;49.176;16.626;2022-12-29T06:20:21;99426.44;;;-4.09;100.00
75681;BME280;64294;49.176;16.626;2022-12-29T06:22:47;99421.75;;;-3.96;100.00
75681;BME280;64294;49.176;16.626;2022-12-29T06:25:12;99423.56;;;-4.18;100.00
75681;BME280;64294;49.176;16.626;2022-12-29T06:27:38;99421.88;;;-4.28;100.00
75681;BME280;64294;49.176;16.626;2022-12-29T06:30:03;99424.47;;;-4.37;100.00
75681;BME280;64294;49.176;16.626;2022-12-29T06:32:29;99410.31;;;-4.36;100.00
75681;BME280;64294;49.176;16.626;2022-12-29T06:34:54;99416.09;;;-4.46;100.00
75681;BME280;64294;49.176;16.626;2022-12-29T06:37:20;99415.41;;;-4.50;100.00
75681;BME280;64294;49.176;16.626;2022-12-29T06:39:45;99421.00;;;-4.54;100.00
75681;BME280;64294;49.176;16.626;2022-12-29T06:42:10;99411.78;;;-4.60;100.00
75681;BME280;64294;49.176;16.626;2022-12-29T06:44:36;99416.22;;;-4.66;100.00
75681;BME280;64294;49.176;16.626;2022-12-29T06:47:01;99406.03;;;-4.66;100.00
75681;BME280;64294;49.176;16.626;2022-12-29T06:49:27;99398.06;;;-4.60;100.00
75681;BME280;64294;49.176;16.626;2022-12-29T06:51:52;99396.88;;;-4.46;100.00
75681;BME280;64294;49.176;16.626;2022-12-29T06:54:17;99403.56;;;-4.47;100.00
75681;BME280;64294;49.176;16.626;2022-12-29T06:56:43;99402.97;;;-4.39;100.00
75681;BME280;64294;49.176;16.626;2022-12-29T06:59:09;99407.16;;;-4.34;100.00
75681;BME280;64294;49.176;16.626;2022-12-29T07:01:35;99411.25;;;-4.26;100.00
75681;BME280;64294;49.176;16.626;2022-12-29T07:04:02;99412.59;;;-4.18;100.00
75681;BME280;64294;49.176;16.626;2022-12-29T07:06:27;99416.25;;;-4.08;100.00
75681;BME280;64294;49.176;16.626;2022-12-29T07:08:53;99411.19;;;-3.97;100.00
75681;BME280;64294;49.176;16.626;2022-12-29T07:11:20;99411.88;;;-3.80;100.00
75681;BME280;64294;49.176;16.626;2022-12-29T07:13:46;99424.00;;;-3.65;100.00
75681;BME280;64294;49.176;16.626;2022-12-29T07:16:12;99441.28;;;-3.52;100.00
75681;BME280;64294;49.176;16.626;2022-12-29T07:18:38;99440.16;;;-3.16;100.00
75681;BME280;64294;49.176;16.626;2022-12-29T07:21:03;99436.03;;;-2.73;100.00
75681;BME280;64294;49.176;16.626;2022-12-29T07:23:29;99449.56;;;-2.45;100.00
75681;BME280;64294;49.176;16.626;2022-12-29T07:26:06;99450.31;;;-1.88;100.00
75681;BME280;64294;49.176;16.626;2022-12-29T07:28:32;99440.31;;;-1.10;100.00
75681;BME280;64294;49.176;16.626;2022-12-29T07:30:59;99428.97;;;-1.03;100.00
75681;BME280;64294;49.176;16.626;2022-12-29T07:33:24;99423.81;;;-1.32;100.00
75681;BME280;64294;49.176;16.626;2022-12-29T07:35:50;99442.78;;;-1.34;100.00
75681;BME280;64294;49.176;16.626;2022-12-29T07:38:16;99426.50;;;-1.50;100.00
75681;BME280;64294;49.176;16.626;2022-12-29T07:40:42;99430.97;;;-0.95;100.00
75681;BME280;64294;49.176;16.626;2022-12-29T07:43:08;99430.78;;;-0.33;98.87
75681;BME280;64294;49.176;16.626;2022-12-29T07:45:33;99432.81;;;0.37;93.72
75681;BME280;64294;49.176;16.626;2022-12-29T07:47:59;99430.25;;;1.32;85.88
75681;BME280;64294;49.176;16.626;2022-12-29T07:50:24;99437.03;;;2.08;82.13
75681;BME280;64294;49.176;16.626;2022-12-29T07:52:50;99440.69;;;3.09;76.50
75681;BME280;64294;49.176;16.626;2022-12-29T07:55:18;99449.03;;;3.90;72.51
75681;BME280;64294;49.176;16.626;2022-12-29T07:57:44;99443.22;;;4.66;68.99
75681;BME280;64294;49.176;16.626;2022-12-29T08:00:10;99452.47;;;3.79;70.08
75681;BME280;64294;49.176;16.626;2022-12-29T08:02:36;99451.97;;;3.40;72.12
75681;BME280;64294;49.176;16.626;2022-12-29T08:05:02;99445.19;;;3.06;72.40
75681;BME280;64294;49.176;16.626;2022-12-29T08:07:27;99445.75;;;2.60;74.72
75681;BME280;64294;49.176;16.626;2022-12-29T08:09:53;99440.56;;;2.83;74.80
75681;BME280;64294;49.176;16.626;2022-12-29T08:12:18;99447.13;;;3.35;74.04
75681;BME280;64294;49.176;16.626;2022-12-29T08:14:44;99443.53;;;4.73;68.84
75681;BME280;64294;49.176;16.626;2022-12-29T08:17:09;99453.88;;;5.47;66.62
75681;BME280;64294;49.176;16.626;2022-12-29T08:19:35;99455.41;;;5.48;65.29
75681;BME280;64294;49.176;16.626;2022-12-29T08:22:01;99457.22;;;5.08;65.86
75681;BME280;64294;49.176;16.626;2022-12-29T08:24:26;99455.06;;;4.92;67.78
75681;BME280;64294;49.176;16.626;2022-12-29T08:26:52;99455.56;;;4.59;69.81
75681;BME280;64294;49.176;16.626;2022-12-29T08:29:17;99465.19;;;4.32;74.29
75681;BME280;64294;49.176;16.626;2022-12-29T08:31:43;99450.94;;;3.58;75.72
75681;BME280;64294;49.176;16.626;2022-12-29T08:34:08;99448.25;;;3.08;77.85
75681;BME280;64294;49.176;16.626;2022-12-29T08:36:33;99458.00;;;2.68;81.01
75681;BME280;64294;49.176;16.626;2022-12-29T08:38:59;99452.47;;;2.24;83.60
75681;BME280;64294;49.176;16.626;2022-12-29T08:41:24;99444.00;;;2.04;84.91
75681;BME280;64294;49.176;16.626;2022-12-29T08:43:50;99440.97;;;2.31;85.27
75681;BME280;64294;49.176;16.626;2022-12-29T08:46:15;99433.38;;;3.11;80.90
75681;BME280;64294;49.176;16.626;2022-12-29T08:48:41;99440.94;;;3.46;77.71
75681;BME280;64294;49.176;16.626;2022-12-29T08:51:07;99434.88;;;3.47;78.48
75681;BME280;64294;49.176;16.626;2022-12-29T08:53:33;99442.94;;;3.86;78.33
75681;BME280;64294;49.176;16.626;2022-12-29T08:56:00;99441.13;;;4.61;75.63
75681;BME280;64294;49.176;16.626;2022-12-29T08:58:26;99445.94;;;4.92;73.17
75681;BME280;64294;49.176;16.626;2022-12-29T09:00:55;99449.00;;;4.62;74.45
75681;BME280;64294;49.176;16.626;2022-12-29T09:03:24;99447.28;;;4.39;74.74
75681;BME280;64294;49.176;16.626;2022-12-29T09:05:53;99454.97;;;3.77;76.87
75681;BME280;64294;49.176;16.626;2022-12-29T09:08:19;99459.78;;;3.77;78.56
75681;BME280;64294;49.176;16.626;2022-12-29T09:10:45;99468.59;;;3.55;78.71
75681;BME280;64294;49.176;16.626;2022-12-29T09:13:12;99472.16;;;4.22;77.68
75681;BME280;64294;49.176;16.626;2022-12-29T09:15:38;99465.91;;;4.59;75.34
75681;BME280;64294;49.176;16.626;2022-12-29T09:18:04;99461.72;;;4.17;76.20
75681;BME280;64294;49.176;16.626;2022-12-29T09:20:30;99458.06;;;4.57;75.52
75681;BME280;64294;49.176;16.626;2022-12-29T09:22:55;99463.63;;;5.68;70.70
75681;BME280;64294;49.176;16.626;2022-12-29T09:25:21;99471.69;;;6.20;67.60
75681;BME280;64294;49.176;16.626;2022-12-29T09:27:50;99467.91;;;6.23;68.82
75681;BME280;64294;49.176;16.626;2022-12-29T09:30:17;99469.22;;;6.61;66.66
75681;BME280;64294;49.176;16.626;2022-12-29T09:32:43;99464.41;;;6.67;65.65
75681;BME280;64294;49.176;16.626;2022-12-29T09:35:08;99463.38;;;6.54;66.14
75681;BME280;64294;49.176;16.626;2022-12-29T09:37:34;99461.38;;;6.71;66.51
75681;BME280;64294;49.176;16.626;2022-12-29T09:39:59;99465.66;;;5.68;68.84
75681;BME280;64294;49.176;16.626;2022-12-29T09:45:15;99470.34;;;4.19;75.97
75681;BME280;64294;49.176;16.626;2022-12-29T09:47:45;99467.88;;;4.01;76.46
75681;BME280;64294;49.176;16.626;2022-12-29T09:52:44;99460.38;;;3.25;80.48
75681;BME280;64294;49.176;16.626;2022-12-29T09:55:17;99464.91;;;3.08;82.29
75681;BME280;64294;49.176;16.626;2022-12-29T10:00:19;99447.50;;;3.28;81.19
75681;BME280;64294;49.176;16.626;2022-12-29T10:11:23;99428.75;;;4.99;74.23
75681;BME280;64294;49.176;16.626;2022-12-29T10:19:59;99419.97;;;6.64;67.44
75681;BME280;64294;49.176;16.626;2022-12-29T10:22:52;99423.78;;;6.94;66.39
75681;BME280;64294;49.176;16.626;2022-12-29T10:25:23;99413.63;;;6.80;65.78
75681;BME280;64294;49.176;16.626;2022-12-29T10:27:50;99422.22;;;6.88;66.18
75681;BME280;64294;49.176;16.626;2022-12-29T10:30:18;99409.56;;;8.19;64.37
75681;BME280;64294;49.176;16.626;2022-12-29T10:33:00;99412.38;;;9.15;58.04
75681;BME280;64294;49.176;16.626;2022-12-29T10:35:32;99410.75;;;9.87;56.33
75681;BME280;64294;49.176;16.626;2022-12-29T10:41:00;99409.09;;;12.26;46.90
75681;BME280;64294;49.176;16.626;2022-12-29T10:43:34;99408.25;;;12.18;46.19
75681;BME280;64294;49.176;16.626;2022-12-29T10:46:05;99406.38;;;11.33;48.42
75681;BME280;64294;49.176;16.626;2022-12-29T10:48:34;99396.31;;;11.91;46.88
75681;BME280;64294;49.176;16.626;2022-12-29T10:51:09;99412.09;;;10.56;50.24
75681;BME280;64294;49.176;16.626;2022-12-29T10:53:55;99407.44;;;9.46;53.37
75681;BME280;64294;49.176;16.626;2022-12-29T10:59:10;99398.63;;;8.57;56.24
75681;BME280;64294;49.176;16.626;2022-12-29T11:07:07;99393.06;;;6.89;62.98
75681;BME280;64294;49.176;16.626;2022-12-29T11:09:35;99394.81;;;6.86;63.72
75681;BME280;64294;49.176;16.626;2022-12-29T11:14:43;99395.84;;;6.61;64.87
75681;BME280;64294;49.176;16.626;2022-12-29T11:17:14;99394.59;;;6.40;65.64
75681;BME280;64294;49.176;16.626;2022-12-29T11:19:40;99388.22;;;6.28;65.71
75681;BME280;64294;49.176;16.626;2022-12-29T11:22:24;99394.56;;;6.17;65.87
75681;BME280;64294;49.176;16.626;2022-12-29T11:24:51;99399.97;;;5.61;69.20
75681;BME280;64294;49.176;16.626;2022-12-29T11:27:23;99401.13;;;5.38;69.91
75681;BME280;64294;49.176;16.626;2022-12-29T11:29:50;99385.94;;;4.91;71.08
75681;BME280;64294;49.176;16.626;2022-12-29T11:32:20;99380.78;;;4.78;72.07
75681;BME280;64294;49.176;16.626;2022-12-29T11:34:46;99348.56;;;4.29;75.14
75681;BME280;64294;49.176;16.626;2022-12-29T11:37:14;99364.75;;;4.30;77.81
75681;BME280;64294;49.176;16.626;2022-12-29T11:42:35;99360.56;;;4.14;77.71
75681;BME280;64294;49.176;16.626;2022-12-29T11:45:31;99376.25;;;3.65;82.58
75681;BME280;64294;49.176;16.626;2022-12-29T11:48:01;99367.50;;;3.73;81.28
75681;BME280;64294;49.176;16.626;2022-12-29T11:50:32;99370.50;;;3.49;83.19
75681;BME280;64294;49.176;16.626;2022-12-29T11:53:01;99355.28;;;3.44;83.28
75681;BME280;64294;49.176;16.626;2022-12-29T11:55:29;99351.28;;;3.04;85.51
75681;BME280;64294;49.176;16.626;2022-12-29T11:57:57;99336.34;;;3.22;85.61
75681;BME280;64294;49.176;16.626;2022-12-29T12:00:25;99347.44;;;3.43;84.78
75681;BME280;64294;49.176;16.626;2022-12-29T12:03:05;99341.34;;;3.39;85.05
75681;BME280;64294;49.176;16.626;2022-12-29T12:10:49;99335.50;;;3.57;84.38
75681;BME280;64294;49.176;16.626;2022-12-29T12:13:30;99332.00;;;3.62;84.44
75681;BME280;64294;49.176;16.626;2022-12-29T12:16:08;99312.50;;;3.82;83.42
75681;BME280;64294;49.176;16.626;2022-12-29T12:18:41;99321.13;;;3.90;83.24
75681;BME280;64294;49.176;16.626;2022-12-29T12:21:18;99329.72;;;3.86;83.22
75681;BME280;64294;49.176;16.626;2022-12-29T12:27:12;99317.19;;;4.28;82.48
75681;BME280;64294;49.176;16.626;2022-12-29T12:32:28;99322.47;;;4.63;80.96
75681;BME280;64294;49.176;16.626;2022-12-29T12:34:55;99319.75;;;4.32;81.74
75681;BME280;64294;49.176;16.626;2022-12-29T12:37:31;99318.94;;;4.63;81.47
75681;BME280;64294;49.176;16.626;2022-12-29T12:59:38;99312.00;;;4.47;81.77
75681;BME280;64294;49.176;16.626;2022-12-29T13:10:42;99309.88;;;4.31;83.13
75681;BME280;64294;49.176;16.626;2022-12-29T13:24:31;99294.94;;;4.65;81.57
75681;BME280;64294;49.176;16.626;2022-12-29T13:27:17;99305.38;;;4.81;80.50
75681;BME280;64294;49.176;16.626;2022-12-29T13:29:54;99308.66;;;4.80;79.98
75681;BME280;64294;49.176;16.626;2022-12-29T13:38:16;99305.75;;;4.57;80.58
75681;BME280;64294;49.176;16.626;2022-12-29T13:40:45;99295.78;;;4.45;82.02
75681;BME280;64294;49.176;16.626;2022-12-29T13:43:13;99292.03;;;4.48;81.76
75681;BME280;64294;49.176;16.626;2022-12-29T13:45:42;99273.63;;;4.19;83.30
75681;BME280;64294;49.176;16.626;2022-12-29T13:48:22;99285.38;;;4.40;81.97
75681;BME280;64294;49.176;16.626;2022-12-29T13:50:55;99285.53;;;4.63;81.68
75681;BME280;64294;49.176;16.626;2022-12-29T13:53:55;99300.03;;;4.72;80.73
75681;BME280;64294;49.176;16.626;2022-12-29T14:01:55;99284.75;;;4.56;81.53
75681;BME280;64294;49.176;16.626;2022-12-29T14:04:25;99299.31;;;4.40;82.30
75681;BME280;64294;49.176;16.626;2022-12-29T14:07:02;99291.47;;;4.44;82.38
75681;BME280;64294;49.176;16.626;2022-12-29T14:09:50;99296.47;;;4.29;83.15
75681;BME280;64294;49.176;16.626;2022-12-29T14:14:45;99304.31;;;3.99;83.97
75681;BME280;64294;49.176;16.626;2022-12-29T14:17:11;99296.19;;;3.95;84.11
75681;BME280;64294;49.176;16.626;2022-12-29T14:19:41;99287.81;;;3.64;85.55
75681;BME280;64294;49.176;16.626;2022-12-29T14:22:09;99285.06;;;3.44;86.14
75681;BME280;64294;49.176;16.626;2022-12-29T14:24:38;99283.81;;;3.19;87.72
75681;BME280;64294;49.176;16.626;2022-12-29T14:37:34;99289.03;;;2.56;91.17
75681;BME280;64294;49.176;16.626;2022-12-29T14:40:06;99286.31;;;2.41;91.75
75681;BME280;64294;49.176;16.626;2022-12-29T14:42:39;99299.63;;;2.37;92.68
75681;BME280;64294;49.176;16.626;2022-12-29T14:47:41;99295.47;;;2.12;93.74
75681;BME280;64294;49.176;16.626;2022-12-29T14:55:54;99278.56;;;1.66;96.51
75681;BME280;64294;49.176;16.626;2022-12-29T14:58:31;99281.16;;;1.55;97.82
75681;BME280;64294;49.176;16.626;2022-12-29T15:00:58;99279.69;;;1.44;98.01
75681;BME280;64294;49.176;16.626;2022-12-29T15:03:25;99299.84;;;1.30;98.59
75681;BME280;64294;49.176;16.626;2022-12-29T15:06:03;99298.38;;;1.20;99.52
75681;BME280;64294;49.176;16.626;2022-12-29T15:08:32;99294.59;;;1.08;99.83
75681;BME280;64294;49.176;16.626;2022-12-29T15:13:40;99299.03;;;0.91;100.00
75681;BME280;64294;49.176;16.626;2022-12-29T15:16:29;99301.69;;;0.85;100.00
75681;BME280;64294;49.176;16.626;2022-12-29T15:18:55;99306.94;;;0.83;100.00
75681;BME280;64294;49.176;16.626;2022-12-29T15:21:26;99317.78;;;1.11;100.00
75681;BME280;64294;49.176;16.626;2022-12-29T15:23:52;99318.50;;;1.20;100.00
75681;BME280;64294;49.176;16.626;2022-12-29T15:26:18;99317.97;;;1.31;100.00
75681;BME280;64294;49.176;16.626;2022-12-29T15:28:49;99317.50;;;1.09;100.00
75681;BME280;64294;49.176;16.626;2022-12-29T15:31:20;99319.69;;;1.05;100.00
75681;BME280;64294;49.176;16.626;2022-12-29T15:34:09;99322.25;;;0.94;100.00
75681;BME280;64294;49.176;16.626;2022-12-29T15:36:40;99322.47;;;0.81;100.00
75681;BME280;64294;49.176;16.626;2022-12-29T15:39:38;99318.09;;;0.65;100.00
75681;BME280;64294;49.176;16.626;2022-12-29T15:42:16;99320.03;;;0.50;100.00
75681;BME280;64294;49.176;16.626;2022-12-29T15:44:46;99310.19;;;0.49;100.00